sensor_id;sensor_type;location;lat;lon;timestamp;temperature;humidity
6740;DHT22;3407;49.882;10.920;2024-02-28T00:03:02;5.90;1.00
6740;DHT22;3407;49.882;10.920;2024-02-28T00:07:57;5.80;99.90
6740;DHT22;3407;49.882;10.920;2024-02-28T00:12:53;5.70;1.00
6740;DHT22;3407;49.882;10.920;2024-02-28T00:17:52;5.70;1.00
6740;DHT22;3407;49.882;10.920;2024-02-28T00:22:47;5.80;99.90
6740;DHT22;3407;49.882;10.920;2024-02-28T00:27:43;5.80;99.90
6740;DHT22;3407;49.882;10.920;2024-02-28T00:32:39;5.80;99.90
6740;DHT22;3407;49.882;10.920;2024-02-28T00:37:34;5.80;99.90
6740;DHT22;3407;49.882;10.920;2024-02-28T00:42:30;5.80;99.90
6740;DHT22;3407;49.882;10.920;2024-02-28T00:47:25;5.80;1.00
6740;DHT22;3407;49.882;10.920;2024-02-28T00:52:21;5.80;1.00
6740;DHT22;3407;49.882;10.920;2024-02-28T00:57:17;5.80;99.90
6740;DHT22;3407;49.882;10.920;2024-02-28T01:02:12;5.80;99.90
6740;DHT22;3407;49.882;10.920;2024-02-28T01:07:08;5.80;1.00
6740;DHT22;3407;49.882;10.920;2024-02-28T01:12:03;5.80;99.90
6740;DHT22;3407;49.882;10.920;2024-02-28T01:16:59;5.80;1.00
6740;DHT22;3407;49.882;10.920;2024-02-28T01:21:54;5.80;1.00
6740;DHT22;3407;49.882;10.920;2024-02-28T01:26:50;5.80;1.00
6740;DHT22;3407;49.882;10.920;2024-02-28T01:31:46;5.70;1.00
6740;DHT22;3407;49.882;10.920;2024-02-28T01:36:41;5.70;99.90
6740;DHT22;3407;49.882;10.920;2024-02-28T01:41:37;5.70;1.00
6740;DHT22;3407;49.882;10.920;2024-02-28T01:46:32;5.80;99.90
6740;DHT22;3407;49.882;10.920;2024-02-28T01:51:28;5.80;99.90
6740;DHT22;3407;49.882;10.920;2024-02-28T01:56:23;5.80;99.90
6740;DHT22;3407;49.882;10.920;2024-02-28T02:01:20;5.90;1.00
6740;DHT22;3407;49.882;10.920;2024-02-28T02:06:16;5.90;1.00
6740;DHT22;3407;49.882;10.920;2024-02-28T02:11:12;5.90;1.00
6740;DHT22;3407;49.882;10.920;2024-02-28T02:16:09;5.80;99.90
6740;DHT22;3407;49.882;10.920;2024-02-28T02:21:06;5.80;99.90
6740;DHT22;3407;49.882;10.920;2024-02-28T02:26:04;5.80;1.00
6740;DHT22;3407;49.882;10.920;2024-02-28T02:31:00;5.80;1.00
6740;DHT22;3407;49.882;10.920;2024-02-28T02:35:55;5.80;99.90
6740;DHT22;3407;49.882;10.920;2024-02-28T02:40:52;5.80;1.00
6740;DHT22;3407;49.882;10.920;2024-02-28T02:45:47;5.80;1.00
6740;DHT22;3407;49.882;10.920;2024-02-28T02:50:43;5.80;1.00
6740;DHT22;3407;49.882;10.920;2024-02-28T02:55:38;5.80;1.00
6740;DHT22;3407;49.882;10.920;2024-02-28T03:00:34;5.80;1.00
6740;DHT22;3407;49.882;10.920;2024-02-28T03:05:29;5.90;1.00
6740;DHT22;3407;49.882;10.920;2024-02-28T03:10:25;5.90;1.00
6740;DHT22;3407;49.882;10.920;2024-02-28T03:15:20;5.80;1.00
6740;DHT22;3407;49.882;10.920;2024-02-28T03:20:16;5.80;99.90
6740;DHT22;3407;49.882;10.920;2024-02-28T03:25:11;5.80;1.00
6740;DHT22;3407;49.882;10.920;2024-02-28T03:30:07;5.80;1.00
6740;DHT22;3407;49.882;10.920;2024-02-28T03:35:03;5.90;99.90
6740;DHT22;3407;49.882;10.920;2024-02-28T03:40:00;5.90;99.90
6740;DHT22;3407;49.882;10.920;2024-02-28T03:44:55;5.90;1.00
6740;DHT22;3407;49.882;10.920;2024-02-28T03:49:51;5.90;99.90
6740;DHT22;3407;49.882;10.920;2024-02-28T03:54:46;5.90;25.10
6740;DHT22;3407;49.882;10.920;2024-02-28T03:59:42;5.90;1.00
6740;DHT22;3407;49.882;10.920;2024-02-28T04:04:37;5.90;99.90
6740;DHT22;3407;49.882;10.920;2024-02-28T04:09:33;5.90;1.00
6740;DHT22;3407;49.882;10.920;2024-02-28T04:14:28;5.90;99.20
6740;DHT22;3407;49.882;10.920;2024-02-28T04:19:24;5.90;99.90
6740;DHT22;3407;49.882;10.920;2024-02-28T04:24:19;5.90;99.90
6740;DHT22;3407;49.882;10.920;2024-02-28T04:29:15;5.90;52.00
6740;DHT22;3407;49.882;10.920;2024-02-28T04:34:10;5.90;99.90
6740;DHT22;3407;49.882;10.920;2024-02-28T04:39:06;5.90;99.90
6740;DHT22;3407;49.882;10.920;2024-02-28T04:44:03;5.90;99.90
6740;DHT22;3407;49.882;10.920;2024-02-28T04:48:58;5.90;1.00
6740;DHT22;3407;49.882;10.920;2024-02-28T04:53:54;5.90;99.90
6740;DHT22;3407;49.882;10.920;2024-02-28T04:58:49;5.90;99.90
6740;DHT22;3407;49.882;10.920;2024-02-28T05:03:45;5.90;97.70
6740;DHT22;3407;49.882;10.920;2024-02-28T05:08:40;5.90;1.00
6740;DHT22;3407;49.882;10.920;2024-02-28T05:13:36;5.90;99.90
6740;DHT22;3407;49.882;10.920;2024-02-28T05:18:31;5.90;99.90
6740;DHT22;3407;49.882;10.920;2024-02-28T05:23:27;5.90;1.00
6740;DHT22;3407;49.882;10.920;2024-02-28T05:28:23;6.00;99.90
6740;DHT22;3407;49.882;10.920;2024-02-28T05:33:18;6.00;99.90
6740;DHT22;3407;49.882;10.920;2024-02-28T05:38:14;6.00;99.90
6740;DHT22;3407;49.882;10.920;2024-02-28T05:43:09;6.00;99.90
6740;DHT22;3407;49.882;10.920;2024-02-28T05:48:05;6.00;1.00
6740;DHT22;3407;49.882;10.920;2024-02-28T05:53:01;6.00;99.90
6740;DHT22;3407;49.882;10.920;2024-02-28T05:57:56;6.00;1.00
6740;DHT22;3407;49.882;10.920;2024-02-28T06:02:52;6.00;1.00
6740;DHT22;3407;49.882;10.920;2024-02-28T06:07:48;6.10;1.00
6740;DHT22;3407;49.882;10.920;2024-02-28T06:12:43;6.10;1.00
6740;DHT22;3407;49.882;10.920;2024-02-28T06:17:39;6.10;1.00
6740;DHT22;3407;49.882;10.920;2024-02-28T06:22:34;6.20;99.90
6740;DHT22;3407;49.882;10.920;2024-02-28T06:27:30;6.10;99.90
6740;DHT22;3407;49.882;10.920;2024-02-28T06:32:25;6.10;1.00
6740;DHT22;3407;49.882;10.920;2024-02-28T06:37:21;6.20;1.00
6740;DHT22;3407;49.882;10.920;2024-02-28T06:42:16;6.30;1.00
6740;DHT22;3407;49.882;10.920;2024-02-28T06:47:12;6.40;17.40
6740;DHT22;3407;49.882;10.920;2024-02-28T06:52:07;6.50;1.00
6740;DHT22;3407;49.882;10.920;2024-02-28T06:57:03;6.40;1.00
6740;DHT22;3407;49.882;10.920;2024-02-28T07:01:58;6.40;1.00
6740;DHT22;3407;49.882;10.920;2024-02-28T07:06:54;6.60;1.00
6740;DHT22;3407;49.882;10.920;2024-02-28T07:11:50;6.60;1.00
6740;DHT22;3407;49.882;10.920;2024-02-28T07:16:46;6.70;1.00
6740;DHT22;3407;49.882;10.920;2024-02-28T07:21:42;6.70;1.00
6740;DHT22;3407;49.882;10.920;2024-02-28T07:26:37;6.80;99.90
6740;DHT22;3407;49.882;10.920;2024-02-28T07:31:33;6.90;1.00
6740;DHT22;3407;49.882;10.920;2024-02-28T07:36:28;6.90;99.90
6740;DHT22;3407;49.882;10.920;2024-02-28T07:41:24;6.90;99.90
6740;DHT22;3407;49.882;10.920;2024-02-28T07:46:19;6.90;99.90
6740;DHT22;3407;49.882;10.920;2024-02-28T07:51:15;7.00;99.90
6740;DHT22;3407;49.882;10.920;2024-02-28T07:56:16;7.20;1.00
6740;DHT22;3407;49.882;10.920;2024-02-28T08:01:12;6.90;99.90
6740;DHT22;3407;49.882;10.920;2024-02-28T08:06:08;6.90;1.00
6740;DHT22;3407;49.882;10.920;2024-02-28T08:11:04;7.00;1.00
6740;DHT22;3407;49.882;10.920;2024-02-28T08:15:59;7.00;1.00
6740;DHT22;3407;49.882;10.920;2024-02-28T08:20:55;7.10;1.00
6740;DHT22;3407;49.882;10.920;2024-02-28T08:25:52;7.10;99.90
6740;DHT22;3407;49.882;10.920;2024-02-28T08:30:48;7.20;99.90
6740;DHT22;3407;49.882;10.920;2024-02-28T08:35:44;7.30;99.90
6740;DHT22;3407;49.882;10.920;2024-02-28T08:40:39;7.40;1.00
6740;DHT22;3407;49.882;10.920;2024-02-28T08:45:35;7.40;1.00
6740;DHT22;3407;49.882;10.920;2024-02-28T08:50:30;7.50;99.90
6740;DHT22;3407;49.882;10.920;2024-02-28T08:55:26;7.50;99.90
6740;DHT22;3407;49.882;10.920;2024-02-28T09:00:21;7.70;99.90
6740;DHT22;3407;49.882;10.920;2024-02-28T09:05:17;7.80;25.70
6740;DHT22;3407;49.882;10.920;2024-02-28T09:10:13;8.00;1.00
6740;DHT22;3407;49.882;10.920;2024-02-28T09:15:09;8.30;1.00
6740;DHT22;3407;49.882;10.920;2024-02-28T09:20:05;8.50;99.90
6740;DHT22;3407;49.882;10.920;2024-02-28T09:25:01;8.50;99.90
6740;DHT22;3407;49.882;10.920;2024-02-28T09:29:59;8.80;92.50
6740;DHT22;3407;49.882;10.920;2024-02-28T09:34:55;9.40;1.00
6740;DHT22;3407;49.882;10.920;2024-02-28T09:39:51;9.70;1.00
6740;DHT22;3407;49.882;10.920;2024-02-28T09:44:46;9.80;1.00
6740;DHT22;3407;49.882;10.920;2024-02-28T09:49:42;9.90;1.00
6740;DHT22;3407;49.882;10.920;2024-02-28T09:54:38;10.20;1.00
6740;DHT22;3407;49.882;10.920;2024-02-28T09:59:34;10.30;1.00
6740;DHT22;3407;49.882;10.920;2024-02-28T10:04:32;10.30;1.00
6740;DHT22;3407;49.882;10.920;2024-02-28T10:09:28;10.20;1.00
6740;DHT22;3407;49.882;10.920;2024-02-28T10:14:24;10.10;1.00
6740;DHT22;3407;49.882;10.920;2024-02-28T10:19:19;10.20;99.90
6740;DHT22;3407;49.882;10.920;2024-02-28T10:24:15;10.20;99.90
6740;DHT22;3407;49.882;10.920;2024-02-28T10:29:10;10.80;99.90
6740;DHT22;3407;49.882;10.920;2024-02-28T10:34:07;11.40;99.90
6740;DHT22;3407;49.882;10.920;2024-02-28T10:39:03;11.40;99.90
6740;DHT22;3407;49.882;10.920;2024-02-28T10:43:59;11.20;99.90
6740;DHT22;3407;49.882;10.920;2024-02-28T10:48:55;11.20;99.90
6740;DHT22;3407;49.882;10.920;2024-02-28T10:59:09;13.50;99.90
6740;DHT22;3407;49.882;10.920;2024-02-28T11:04:05;14.90;99.90
6740;DHT22;3407;49.882;10.920;2024-02-28T11:09:03;15.60;99.90
6740;DHT22;3407;49.882;10.920;2024-02-28T11:13:59;15.60;99.90
6740;DHT22;3407;49.882;10.920;2024-02-28T11:18:58;17.10;99.90
6740;DHT22;3407;49.882;10.920;2024-02-28T11:24:00;19.40;99.90
6740;DHT22;3407;49.882;10.920;2024-02-28T11:28:56;21.10;99.90
6740;DHT22;3407;49.882;10.920;2024-02-28T11:33:51;22.40;99.90
6740;DHT22;3407;49.882;10.920;2024-02-28T11:38:47;22.00;99.90
6740;DHT22;3407;49.882;10.920;2024-02-28T11:43:42;22.60;99.90
6740;DHT22;3407;49.882;10.920;2024-02-28T11:48:39;22.70;99.90
6740;DHT22;3407;49.882;10.920;2024-02-28T11:53:34;22.40;99.90
6740;DHT22;3407;49.882;10.920;2024-02-28T11:58:30;23.20;99.90
6740;DHT22;3407;49.882;10.920;2024-02-28T12:03:25;23.00;99.90
6740;DHT22;3407;49.882;10.920;2024-02-28T12:08:22;22.40;99.90
6740;DHT22;3407;49.882;10.920;2024-02-28T12:13:18;21.30;99.90
6740;DHT22;3407;49.882;10.920;2024-02-28T12:18:16;20.50;99.90
6740;DHT22;3407;49.882;10.920;2024-02-28T12:23:12;20.10;99.90
6740;DHT22;3407;49.882;10.920;2024-02-28T12:28:07;19.90;99.90
6740;DHT22;3407;49.882;10.920;2024-02-28T12:33:03;20.60;99.90
6740;DHT22;3407;49.882;10.920;2024-02-28T12:37:59;20.70;99.90
6740;DHT22;3407;49.882;10.920;2024-02-28T12:42:54;20.70;99.90
6740;DHT22;3407;49.882;10.920;2024-02-28T12:47:50;20.60;99.90
6740;DHT22;3407;49.882;10.920;2024-02-28T12:52:45;19.30;99.90
6740;DHT22;3407;49.882;10.920;2024-02-28T12:57:41;18.80;99.90
6740;DHT22;3407;49.882;10.920;2024-02-28T13:02:37;18.90;99.90
6740;DHT22;3407;49.882;10.920;2024-02-28T13:07:32;19.30;99.90
6740;DHT22;3407;49.882;10.920;2024-02-28T13:12:28;19.60;99.90
6740;DHT22;3407;49.882;10.920;2024-02-28T13:17:23;19.40;99.90
6740;DHT22;3407;49.882;10.920;2024-02-28T13:22:19;18.50;99.90
6740;DHT22;3407;49.882;10.920;2024-02-28T13:27:14;19.10;99.90
6740;DHT22;3407;49.882;10.920;2024-02-28T13:32:10;19.10;99.90
6740;DHT22;3407;49.882;10.920;2024-02-28T13:37:05;19.70;99.90
6740;DHT22;3407;49.882;10.920;2024-02-28T13:42:01;18.90;99.90
6740;DHT22;3407;49.882;10.920;2024-02-28T13:46:58;19.10;99.90
6740;DHT22;3407;49.882;10.920;2024-02-28T13:51:54;19.40;99.90
6740;DHT22;3407;49.882;10.920;2024-02-28T13:56:50;18.80;99.90
6740;DHT22;3407;49.882;10.920;2024-02-28T14:01:45;19.30;99.90
6740;DHT22;3407;49.882;10.920;2024-02-28T14:06:41;19.60;99.90
6740;DHT22;3407;49.882;10.920;2024-02-28T14:11:36;19.50;99.90
6740;DHT22;3407;49.882;10.920;2024-02-28T14:16:32;19.50;99.90
6740;DHT22;3407;49.882;10.920;2024-02-28T14:21:27;19.40;99.90
6740;DHT22;3407;49.882;10.920;2024-02-28T14:26:23;19.50;99.90
6740;DHT22;3407;49.882;10.920;2024-02-28T14:31:19;19.60;99.90
6740;DHT22;3407;49.882;10.920;2024-02-28T14:36:15;19.80;99.90
6740;DHT22;3407;49.882;10.920;2024-02-28T14:41:10;20.00;99.90
6740;DHT22;3407;49.882;10.920;2024-02-28T14:46:07;19.90;99.90
6740;DHT22;3407;49.882;10.920;2024-02-28T14:51:05;19.70;99.90
6740;DHT22;3407;49.882;10.920;2024-02-28T14:56:01;19.90;99.90
6740;DHT22;3407;49.882;10.920;2024-02-28T15:00:57;19.70;99.90
6740;DHT22;3407;49.882;10.920;2024-02-28T15:05:55;19.10;99.90
6740;DHT22;3407;49.882;10.920;2024-02-28T15:10:51;18.70;99.90
6740;DHT22;3407;49.882;10.920;2024-02-28T15:15:48;18.60;99.90
6740;DHT22;3407;49.882;10.920;2024-02-28T15:20:43;18.00;99.90
6740;DHT22;3407;49.882;10.920;2024-02-28T15:25:39;17.60;99.90
6740;DHT22;3407;49.882;10.920;2024-02-28T15:30:35;17.70;99.90
6740;DHT22;3407;49.882;10.920;2024-02-28T15:35:31;17.50;99.90
6740;DHT22;3407;49.882;10.920;2024-02-28T15:40:26;17.00;99.90
6740;DHT22;3407;49.882;10.920;2024-02-28T15:45:22;16.10;99.90
6740;DHT22;3407;49.882;10.920;2024-02-28T15:50:17;15.30;99.90
6740;DHT22;3407;49.882;10.920;2024-02-28T15:55:14;14.40;99.90
6740;DHT22;3407;49.882;10.920;2024-02-28T16:00:13;13.70;99.90
6740;DHT22;3407;49.882;10.920;2024-02-28T16:05:08;13.10;99.90
6740;DHT22;3407;49.882;10.920;2024-02-28T16:10:04;12.60;99.90
6740;DHT22;3407;49.882;10.920;2024-02-28T16:15:00;12.20;99.90
6740;DHT22;3407;49.882;10.920;2024-02-28T16:19:55;11.80;99.90
6740;DHT22;3407;49.882;10.920;2024-02-28T16:24:51;11.50;99.90
6740;DHT22;3407;49.882;10.920;2024-02-28T16:29:46;11.20;99.90
6740;DHT22;3407;49.882;10.920;2024-02-28T16:34:42;11.00;99.90
6740;DHT22;3407;49.882;10.920;2024-02-28T16:39:37;10.70;99.90
6740;DHT22;3407;49.882;10.920;2024-02-28T16:44:33;10.40;99.90
6740;DHT22;3407;49.882;10.920;2024-02-28T16:49:28;10.10;99.90
6740;DHT22;3407;49.882;10.920;2024-02-28T16:54:24;9.90;99.90
6740;DHT22;3407;49.882;10.920;2024-02-28T16:59:20;9.60;99.90
6740;DHT22;3407;49.882;10.920;2024-02-28T17:04:15;9.30;99.90
6740;DHT22;3407;49.882;10.920;2024-02-28T17:09:11;9.10;99.90
6740;DHT22;3407;49.882;10.920;2024-02-28T17:14:06;9.00;99.90
6740;DHT22;3407;49.882;10.920;2024-02-28T17:19:02;8.80;99.90
6740;DHT22;3407;49.882;10.920;2024-02-28T17:23:59;8.70;99.90
6740;DHT22;3407;49.882;10.920;2024-02-28T17:28:55;8.50;99.90
6740;DHT22;3407;49.882;10.920;2024-02-28T17:33:51;8.40;99.90
6740;DHT22;3407;49.882;10.920;2024-02-28T17:38:46;8.20;1.00
6740;DHT22;3407;49.882;10.920;2024-02-28T17:43:42;8.10;1.00
6740;DHT22;3407;49.882;10.920;2024-02-28T17:48:38;7.90;1.00
6740;DHT22;3407;49.882;10.920;2024-02-28T17:53:34;7.80;1.00
6740;DHT22;3407;49.882;10.920;2024-02-28T17:58:30;7.60;1.00
6740;DHT22;3407;49.882;10.920;2024-02-28T18:03:26;7.50;29.60
6740;DHT22;3407;49.882;10.920;2024-02-28T18:08:21;7.50;53.00
6740;DHT22;3407;49.882;10.920;2024-02-28T18:13:17;7.40;99.90
6740;DHT22;3407;49.882;10.920;2024-02-28T18:18:16;7.30;99.90
6740;DHT22;3407;49.882;10.920;2024-02-28T18:23:12;7.00;99.90
6740;DHT22;3407;49.882;10.920;2024-02-28T18:28:09;6.80;99.90
6740;DHT22;3407;49.882;10.920;2024-02-28T18:33:04;6.60;1.00
6740;DHT22;3407;49.882;10.920;2024-02-28T18:38:01;6.30;1.00
6740;DHT22;3407;49.882;10.920;2024-02-28T18:42:56;6.10;99.90
6740;DHT22;3407;49.882;10.920;2024-02-28T18:47:52;5.90;9.00
6740;DHT22;3407;49.882;10.920;2024-02-28T18:52:47;5.80;99.90
6740;DHT22;3407;49.882;10.920;2024-02-28T18:57:43;5.80;99.90
6740;DHT22;3407;49.882;10.920;2024-02-28T19:02:39;5.70;1.00
6740;DHT22;3407;49.882;10.920;2024-02-28T19:07:34;5.60;1.00
6740;DHT22;3407;49.882;10.920;2024-02-28T19:12:30;5.50;1.00
6740;DHT22;3407;49.882;10.920;2024-02-28T19:17:27;5.50;1.00
6740;DHT22;3407;49.882;10.920;2024-02-28T19:22:23;5.50;99.90
6740;DHT22;3407;49.882;10.920;2024-02-28T19:27:18;5.40;99.90
6740;DHT22;3407;49.882;10.920;2024-02-28T19:32:14;5.20;1.00
6740;DHT22;3407;49.882;10.920;2024-02-28T19:37:09;5.10;1.00
6740;DHT22;3407;49.882;10.920;2024-02-28T19:42:05;5.00;99.90
6740;DHT22;3407;49.882;10.920;2024-02-28T19:47:00;5.00;99.90
6740;DHT22;3407;49.882;10.920;2024-02-28T19:51:56;5.10;1.00
6740;DHT22;3407;49.882;10.920;2024-02-28T19:56:52;5.20;99.90
6740;DHT22;3407;49.882;10.920;2024-02-28T20:01:48;5.10;99.90
6740;DHT22;3407;49.882;10.920;2024-02-28T20:06:43;5.00;1.00
6740;DHT22;3407;49.882;10.920;2024-02-28T20:11:39;4.90;99.90
6740;DHT22;3407;49.882;10.920;2024-02-28T20:16:35;4.80;1.00
6740;DHT22;3407;49.882;10.920;2024-02-28T20:21:31;4.70;1.00
6740;DHT22;3407;49.882;10.920;2024-02-28T20:26:27;4.70;99.90
6740;DHT22;3407;49.882;10.920;2024-02-28T20:31:22;4.60;99.90
6740;DHT22;3407;49.882;10.920;2024-02-28T20:36:18;4.60;99.90
6740;DHT22;3407;49.882;10.920;2024-02-28T20:41:16;4.60;1.00
6740;DHT22;3407;49.882;10.920;2024-02-28T20:46:11;4.50;99.90
6740;DHT22;3407;49.882;10.920;2024-02-28T20:51:07;4.50;1.00
6740;DHT22;3407;49.882;10.920;2024-02-28T20:56:03;4.50;99.90
6740;DHT22;3407;49.882;10.920;2024-02-28T21:00:59;4.60;99.90
6740;DHT22;3407;49.882;10.920;2024-02-28T21:05:54;4.60;99.90
6740;DHT22;3407;49.882;10.920;2024-02-28T21:10:50;4.60;1.00
6740;DHT22;3407;49.882;10.920;2024-02-28T21:15:46;4.50;1.00
6740;DHT22;3407;49.882;10.920;2024-02-28T21:20:41;4.40;99.90
6740;DHT22;3407;49.882;10.920;2024-02-28T21:25:37;4.40;1.00
6740;DHT22;3407;49.882;10.920;2024-02-28T21:30:35;4.30;99.90
6740;DHT22;3407;49.882;10.920;2024-02-28T21:35:31;4.20;99.90
6740;DHT22;3407;49.882;10.920;2024-02-28T21:40:26;4.20;99.90
6740;DHT22;3407;49.882;10.920;2024-02-28T21:45:23;4.10;99.90
6740;DHT22;3407;49.882;10.920;2024-02-28T21:50:19;4.00;74.10
6740;DHT22;3407;49.882;10.920;2024-02-28T21:55:14;3.90;54.70
6740;DHT22;3407;49.882;10.920;2024-02-28T22:00:10;3.90;99.90
6740;DHT22;3407;49.882;10.920;2024-02-28T22:05:07;3.90;99.90
6740;DHT22;3407;49.882;10.920;2024-02-28T22:10:03;3.80;99.90
6740;DHT22;3407;49.882;10.920;2024-02-28T22:14:59;3.70;99.90
6740;DHT22;3407;49.882;10.920;2024-02-28T22:19:54;3.60;99.90
6740;DHT22;3407;49.882;10.920;2024-02-28T22:24:50;3.60;1.00
6740;DHT22;3407;49.882;10.920;2024-02-28T22:29:45;3.50;99.90
6740;DHT22;3407;49.882;10.920;2024-02-28T22:34:41;3.40;99.90
6740;DHT22;3407;49.882;10.920;2024-02-28T22:39:36;3.30;1.00
6740;DHT22;3407;49.882;10.920;2024-02-28T22:44:32;3.20;1.00
6740;DHT22;3407;49.882;10.920;2024-02-28T22:49:27;3.10;1.00
6740;DHT22;3407;49.882;10.920;2024-02-28T22:54:23;3.10;1.00
6740;DHT22;3407;49.882;10.920;2024-02-28T22:59:19;3.10;1.00
6740;DHT22;3407;49.882;10.920;2024-02-28T23:04:16;3.10;1.00
6740;DHT22;3407;49.882;10.920;2024-02-28T23:09:11;3.10;1.00
6740;DHT22;3407;49.882;10.920;2024-02-28T23:14:10;3.00;1.00
6740;DHT22;3407;49.882;10.920;2024-02-28T23:19:07;2.90;99.90
6740;DHT22;3407;49.882;10.920;2024-02-28T23:24:07;2.90;1.00
6740;DHT22;3407;49.882;10.920;2024-02-28T23:29:02;2.70;1.00
6740;DHT22;3407;49.882;10.920;2024-02-28T23:33:59;2.60;1.00
6740;DHT22;3407;49.882;10.920;2024-02-28T23:38:54;2.40;1.00
6740;DHT22;3407;49.882;10.920;2024-02-28T23:43:50;2.20;1.00
6740;DHT22;3407;49.882;10.920;2024-02-28T23:48:45;2.10;1.00
6740;DHT22;3407;49.882;10.920;2024-02-28T23:53:41;1.90;1.00
6740;DHT22;3407;49.882;10.920;2024-02-28T23:58:36;1.90;1.00
